This is the latest recevied weather packets stored in our database for station/object LX2ZZ-13. If no packets are shown the sender has not sent any weather packets the latest 10 day(s).
| Time | Temp. | Humidity | Pressure | Rain* | Wind** | Luminosity | Snow |
|---|---|---|---|---|---|---|---|
| 1777625737 | 16.11° C | 33% | 1024.6 hPa | 0 mm | - | - | - |
| 1777617353 | 10.56° C | 45% | 1024.2 hPa | 0 mm | - | - | - |
| 1777616750 | 10° C | 47% | 1024.2 hPa | 0 mm | - | - | - |
| 1777611925 | 5° C | 54% | 1024.1 hPa | 0 mm | - | - | - |
| 1777601130 | 6.11° C | 50% | 1024 hPa | 0 mm | - | - | - |
| 1777593349 | 6.67° C | 50% | 1024.4 hPa | 0 mm | - | - | - |
| 1777588524 | 8.89° C | 41% | 1024.1 hPa | 0 mm | - | - | - |
| 1777587921 | 10° C | 40% | 1024.1 hPa | 0 mm | - | - | - |
| 1777584966 | 9.44° C | 42% | 1024 hPa | 0 mm | - | - | - |
| 1777584363 | 8.89° C | 42% | 1024 hPa | 0 mm | - | - | - |
| 1777583759 | 8.33° C | 44% | 1023.9 hPa | 0 mm | - | - | - |
| 1777577125 | 12.78° C | 30% | 1023.2 hPa | 0 mm | - | - | - |
| 1777576522 | 12.78° C | 30% | 1023.2 hPa | 0 mm | - | - | - |
| 1777572963 | 14.44° C | 30% | 1022.8 hPa | 0 mm | - | - | - |
| 1777572360 | 15° C | 28% | 1022.7 hPa | 0 mm | - | - | - |
| 1777569344 | 16.67° C | 27% | 1022.6 hPa | 0 mm | - | - | - |
| 1777559774 | 18.89° C | 23% | 1022.9 hPa | 0 mm | - | - | - |
| 1777558568 | 18.89° C | 25% | 1022.9 hPa | 0 mm | - | - | - |
| 1777555532 | 19.44° C | 26% | 1023.1 hPa | 0 mm | - | - | - |
| 1777553120 | 18.33° C | 25% | 1023.3 hPa | 0 mm | - | - | - |
| 1777549562 | 17.22° C | 25% | 1023.6 hPa | 0 mm | - | - | - |
| 1777548355 | 17.78° C | 26% | 1023.8 hPa | 0 mm | - | - | - |
| 1777547772 | 17.22° C | 30% | 1023.8 hPa | 0 mm | - | - | - |
| 1777547149 | 17.22° C | 31% | 1024 hPa | 0 mm | - | - | - |
| 1777543531 | 15.56° C | 31% | 1024.2 hPa | 0 mm | - | - | - |
* Rain latest hour (hover to see other rain measurements)
** Current wind speed in m/s (hover to see current wind gust speed)